Latest Weather Observations for Mount Gambier

IDS60801

Issued at 10:01 pm CST Friday 21 July 2017 (issued every 30 minutes, with the page automatically refreshed every 10 minutes)

About weather observations | Map of weather stations | Latest weather observations for SA | Other Formats
Station Details ID: 026021 Name: MOUNT GAMBIER AERO Lat: -37.75 Lon: 140.77 Height: 63.0 m
Data from the previous 72 hours. | See also: Recent months at Mount Gambier
Date/Time
CST
Temp
°C
App
Temp
°C
Dew
Point
°C
Rel
Hum
%
Delta-T
°C
Wind Press
QNH
hPa
Press
MSL
hPa
Rain since
9am
mm
Dir  Spd
km/h
Gust
km/h
Spd
kts
Gust
kts
21/10:00pm 8.6 4.3 3.4 70 2.2 N 15 22 8 12 1018.6 1018.7 0.0
21/09:30pm 8.6 3.4 3.8 72 2.1 NNE 20 30 11 16 1018.4 1018.5 0.0
21/09:00pm 8.5 3.9 3.9 73 2.0 NE 17 20 9 11 1018.3 1018.4 0.0
21/08:30pm 8.1 3.2 4.1 76 1.7 NNE 19 22 10 12 1018.8 1018.9 0.0
21/08:00pm 8.3 3.9 4.5 77 1.7 NNE 17 20 9 11 1019.0 1019.1 0.0
21/07:30pm 7.5 3.4 4.3 80 1.4 NNE 15 17 8 9 1019.4 1019.5 0.0
21/07:00pm 8.5 4.1 4.9 78 1.6 NNE 17 19 9 10 1019.1 1019.2 0.0
21/06:30pm 8.6 4.6 5.0 78 1.6 NNE 15 17 8 9 1019.1 1019.2 0.0
21/06:00pm 9.1 5.6 5.3 77 1.7 NNE 13 17 7 9 1019.2 1019.3 0.0
21/05:30pm 9.2 5.7 5.4 77 1.7 NNE 13 15 7 8 1019.1 1019.2 0.0
21/05:00pm 9.7 6.2 5.3 74 2.0 NNE 13 15 7 8 1019.1 1019.2 0.0
21/04:30pm 11.1 6.4 5.2 67 2.7 N 19 26 10 14 1019.2 1019.3 0.0
21/04:00pm 11.9 6.3 5.3 64 3.1 N 24 33 13 18 1019.0 1019.1 0.0
21/03:30pm 12.4 7.2 5.6 63 3.2 N 22 32 12 17 1018.9 1019.0 0.0
21/03:00pm 12.8 7.1 5.0 59 3.6 N 24 33 13 18 1018.8 1018.9 0.0
21/02:30pm 13.0 7.1 5.9 62 3.3 N 26 39 14 21 1019.0 1019.1 0.0
21/02:00pm 12.9 7.0 6.0 63 3.3 N 26 35 14 19 1019.4 1019.5 0.0
21/01:30pm 12.8 7.2 5.5 61 3.4 N 24 33 13 18 1019.9 1020.0 0.0
21/01:00pm 12.3 6.3 5.2 62 3.3 N 26 33 14 18 1020.2 1020.3 0.0
21/12:30pm 11.7 6.0 4.7 62 3.2 N 24 35 13 19 1021.0 1021.1 0.0
21/12:00pm 11.6 5.5 4.8 63 3.1 N 26 39 14 21 1021.3 1021.4 0.0
21/11:30am 11.3 5.2 4.7 64 3.0 NNE 26 35 14 19 1022.0 1022.2 0.0
21/11:00am 10.3 3.7 4.2 66 2.7 NNE 28 35 15 19 1022.2 1022.4 0.0
21/10:30am 9.6 3.0 4.2 69 2.4 NNE 28 35 15 19 1023.0 1023.2 0.0
21/10:00am 9.0 3.5 4.0 71 2.2 NNE 22 30 12 16 1023.3 1023.5 0.0
21/09:30am 8.0 3.4 3.7 74 1.8 NNE 17 26 9 14 1023.2 1023.4 0.0
21/09:00am 6.8 1.7 3.2 78 1.5 NNE 19 26 10 14 1023.2 1023.4 0.0
21/08:30am 5.4 1.4 2.8 83 1.1 NNE 13 15 7 8 1023.1 1023.3 0.0
21/08:00am 4.3 0.2 2.3 87 0.8 NNE 13 17 7 9 1022.8 1023.0 0.0
21/07:30am 4.5 0.5 2.7 88 0.7 NNE 13 17 7 9 1023.0 1023.2 0.0
21/07:00am 3.2 -0.6 1.9 91 0.5 N 11 15 6 8 1023.1 1023.3 0.0
21/06:30am 3.1 -1.1 1.5 89 0.6 N 13 17 7 9 1022.7 1022.9 0.0
21/06:00am 4.4 -0.1 2.1 85 0.9 NE 15 17 8 9 1022.0 1022.2 0.0
21/05:30am 4.2 0.1 2.1 86 0.8 NE 13 17 7 9 1021.5 1021.6 0.0
21/05:00am 4.1 -0.4 2.0 86 0.8 NE 15 17 8 9 1021.8 1022.0 0.0
21/04:30am 4.3 0.5 2.0 85 0.9 NE 11 13 6 7 1022.0 1022.2 0.0
21/04:00am 4.2 0.4 1.9 85 0.9 NNE 11 11 6 6 1022.1 1022.3 0.0
21/03:30am 4.2 0.1 2.2 87 0.8 NNE 13 15 7 8 1022.0 1022.2 0.0
21/03:00am 4.0 -0.1 2.0 87 0.8 NNE 13 17 7 9 1021.8 1022.0 0.0
21/02:30am 3.1 -0.4 1.5 89 0.6 NE 9 11 5 6 1021.7 1021.9 0.0
21/02:00am 3.1 -0.3 1.8 91 0.5 NE 9 11 5 6 1021.9 1022.1 0.0
21/01:30am 3.6 -0.1 2.4 92 0.5 NE 11 13 6 7 1021.9 1022.1 0.0
21/01:00am 3.0 -0.4 1.7 91 0.5 NE 9 11 5 6 1022.1 1022.3 0.0
21/12:30am 3.4 0.1 2.4 93 0.4 ENE 9 15 5 8 1022.6 1022.8 0.0
21/12:00am 4.0 0.8 3.0 93 0.4 ENE 9 9 5 5 1022.8 1023.0 0.0
 
Date/Time
CST
Temp
°C
App
Temp
°C
Dew
Point
°C
Rel
Hum
%
Delta-T
°C
Wind Press
QNH
hPa
Press
MSL
hPa
Rain since
9am
mm
Dir  Spd
km/h
Gust
km/h
Spd
kts
Gust
kts
20/11:30pm 4.7 1.5 3.2 90 0.6 NE 9 9 5 5 1023.0 1023.2 0.0
20/11:00pm 4.5 1.3 3.0 90 0.6 NE 9 9 5 5 1022.9 1023.1 0.0
20/10:30pm 5.0 1.8 3.2 88 0.7 NE 9 9 5 5 1023.0 1023.2 0.0
20/10:00pm 4.4 1.2 3.1 91 0.5 NE 9 9 5 5 1023.0 1023.2 0.0
20/09:30pm 4.6 1.8 2.9 89 0.7 ENE 7 9 4 5 1022.9 1023.1 0.0
20/09:00pm 4.4 1.7 2.9 90 0.6 NNE 6 7 3 4 1023.0 1023.2 0.0
20/08:30pm 5.1 2.4 3.6 90 0.6 NE 7 9 4 5 1023.0 1023.2 0.0
20/08:00pm 5.1 2.3 3.4 89 0.7 NE 7 7 4 4 1023.0 1023.2 0.0
20/07:30pm 6.3 3.3 4.3 87 0.9 ESE 9 9 5 5 1022.9 1023.1 0.0
20/07:00pm 5.7 3.0 3.7 87 0.8 NNE 7 13 4 7 1022.9 1023.1 0.0
20/06:30pm 7.3 4.7 4.4 82 1.3 SSE 7 9 4 5 1022.8 1023.0 0.0
20/06:00pm 8.8 6.3 5.0 77 1.7 SE 7 9 4 5 1022.6 1022.8 0.0
20/05:30pm 8.8 6.2 5.9 82 1.3 SSE 9 11 5 6 1022.4 1022.6 0.0
20/05:00pm 9.5 7.4 6.6 82 1.4 SSE 7 9 4 5 1022.1 1022.3 0.0
20/04:30pm 9.5 7.5 6.9 84 1.2 SSE 7 9 4 5 1021.8 1022.0 0.0
20/04:00pm 10.2 6.1 6.2 76 1.9 SE 17 20 9 11 1021.7 1021.9 0.0
20/03:30pm 11.3 7.7 5.0 65 2.9 S 13 19 7 10 1021.5 1021.6 0.0
20/03:00pm 12.2 8.2 4.7 60 3.4 S 15 24 8 13 1021.8 1022.0 0.0
20/02:30pm 11.2 7.4 3.7 60 3.3 SSW 13 19 7 10 1021.9 1022.1 0.0
20/02:00pm 11.0 5.5 4.2 63 3.0 S 22 30 12 16 1022.0 1022.2 0.0
20/01:30pm 11.5 5.8 4.9 64 3.0 S 24 30 13 16 1021.8 1022.0 0.0
20/01:00pm 12.5 7.4 5.9 64 3.1 S 22 32 12 17 1021.9 1022.1 0.0
20/12:30pm 11.8 5.8 3.3 56 3.7 S 24 33 13 18 1022.0 1022.2 0.0
20/12:00pm 11.9 4.9 3.9 58 3.6 S 30 37 16 20 1022.3 1022.5 0.0
20/11:30am 11.7 5.0 5.6 66 2.8 S 30 37 16 20 1022.4 1022.6 0.0
20/11:00am 11.7 4.6 3.5 57 3.6 S 30 35 16 19 1022.9 1023.1 0.0
20/10:30am 11.4 4.6 5.3 66 2.8 SSW 30 35 16 19 1023.0 1023.2 0.0
20/10:00am 11.3 5.6 5.0 65 2.9 SSW 24 33 13 18 1023.3 1023.5 0.0
20/09:30am 10.9 6.7 7.4 79 1.7 SW 19 26 10 14 1023.0 1023.2 0.0
20/09:00am 10.8 7.2 6.9 77 1.8 SW 15 20 8 11 1022.6 1022.8 0.0
20/08:30am 8.9 4.3 6.5 85 1.1 SSW 20 33 11 18 1022.2 1022.4 0.0
20/08:00am 9.4 5.2 5.6 77 1.7 WSW 17 19 9 10 1021.9 1022.1 0.0
20/07:30am 9.0 5.1 5.4 78 1.6 WSW 15 20 8 11 1021.7 1021.9 0.0
20/07:00am 9.2 4.8 4.6 73 2.0 SW 17 20 9 11 1021.6 1021.7 0.0
20/06:30am 8.8 4.9 5.4 79 1.5 WSW 15 19 8 10 1021.5 1021.6 0.0
20/06:00am 8.4 4.8 5.0 79 1.5 WSW 13 17 7 9 1021.3 1021.4 0.0
20/05:30am 7.5 3.9 4.8 83 1.2 W 13 17 7 9 1021.1 1021.2 0.0
20/05:00am 7.6 4.0 4.9 83 1.2 W 13 13 7 7 1021.3 1021.4 0.0
20/04:30am 7.6 4.0 4.9 83 1.2 W 13 15 7 8 1021.3 1021.4 0.0
20/04:00am 7.8 4.2 5.1 83 1.2 W 13 17 7 9 1021.3 1021.4 0.0
20/03:30am 7.8 3.9 5.3 84 1.1 W 15 20 8 11 1021.4 1021.5 0.0
20/03:00am 7.4 3.4 5.0 85 1.1 W 15 17 8 9 1021.4 1021.5 0.0
20/02:30am 7.5 3.9 5.1 85 1.1 W 13 15 7 8 1021.3 1021.4 0.0
20/02:00am 7.6 4.0 5.2 85 1.1 W 13 15 7 8 1021.3 1021.4 0.0
20/01:30am 7.1 3.1 4.9 86 1.0 W 15 17 8 9 1021.3 1021.4 0.0
20/01:00am 7.5 3.6 5.3 86 1.0 W 15 17 8 9 1021.6 1021.7 0.0
20/12:30am 6.9 3.3 5.2 89 0.7 WNW 13 17 7 9 1021.8 1022.0 0.0
20/12:00am 6.7 2.7 5.0 89 0.7 WNW 15 17 8 9 1021.9 1022.1 0.0
 
Date/Time
CST
Temp
°C
App
Temp
°C
Dew
Point
°C
Rel
Hum
%
Delta-T
°C
Wind Press
QNH
hPa
Press
MSL
hPa
Rain since
9am
mm
Dir  Spd
km/h
Gust
km/h
Spd
kts
Gust
kts
19/11:30pm 7.1 3.6 5.3 88 0.8 WNW 13 15 7 8 1022.2 1022.4 0.0
19/11:00pm 7.2 4.0 5.3 88 0.8 W 11 13 6 7 1022.6 1022.8 0.0
19/10:30pm 7.1 3.6 5.3 88 0.8 W 13 17 7 9 1022.5 1022.7 0.0
19/10:00pm 7.4 3.5 5.2 86 1.0 W 15 19 8 10 1022.7 1022.9 0.0
19/09:30pm 7.2 3.2 4.9 85 1.0 WNW 15 19 8 10 1022.6 1022.8 0.0
19/09:00pm 6.8 3.1 4.5 85 1.0 W 13 15 7 8 1022.7 1022.9 0.0
19/08:30pm 7.0 3.3 4.5 84 1.1 W 13 15 7 8 1022.8 1023.0 0.0
19/08:00pm 7.2 3.5 4.7 84 1.1 W 13 15 7 8 1022.8 1023.0 0.0
19/07:30pm 7.2 3.5 4.5 83 1.2 W 13 15 7 8 1022.5 1022.7 0.0
19/07:00pm 7.5 4.3 5.0 84 1.1 W 11 13 6 7 1022.8 1023.0 0.0
19/06:30pm 7.9 4.3 5.2 83 1.2 WSW 13 17 7 9 1022.5 1022.7 0.0
19/06:00pm 8.5 5.0 5.4 81 1.4 WSW 13 15 7 8 1022.5 1022.7 0.0
19/05:30pm 8.8 5.2 5.2 78 1.6 WSW 13 17 7 9 1022.3 1022.5 0.0
19/05:00pm 9.1 5.5 4.9 75 1.9 WSW 13 17 7 9 1022.0 1022.2 0.0
19/04:30pm 10.1 5.3 4.7 69 2.4 SW 19 24 10 13 1021.6 1021.7 0.0
19/04:00pm 10.8 6.0 4.9 67 2.7 SW 19 30 10 16 1020.7 1020.8 0.0
19/03:30pm 10.9 5.9 6.3 73 2.2 SSW 22 30 12 16 1021.0 1021.1 0.0
19/03:00pm 11.7 6.0 4.7 62 3.2 SW 24 35 13 19 1020.9 1021.0 0.0
19/02:30pm 11.8 4.7 5.7 66 2.8 SSW 32 39 17 21 1020.7 1020.8 0.0
19/02:00pm 12.1 5.2 6.4 68 2.7 SSW 32 41 17 22 1020.7 1020.8 0.0
19/01:30pm 12.5 6.2 5.7 63 3.2 SSW 28 37 15 20 1020.8 1020.9 0.0
19/01:00pm 12.0 5.1 6.5 69 2.6 SSW 32 39 17 21 1020.9 1021.0 0.0
19/12:30pm 11.3 4.7 6.0 70 2.5 SSW 30 39 16 21 1021.1 1021.2 0.0
19/12:00pm 11.0 4.4 6.0 71 2.3 SSW 30 35 16 19 1021.3 1021.4 0.0
19/11:30am 11.1 3.6 4.6 64 2.9 SSW 33 41 18 22 1021.3 1021.4 0.0
19/11:12am 11.0 3.6 4.2 63 3.0 SSW 32 50 17 27 1021.2 1021.3 0.0
19/11:00am 11.7 4.5 5.1 64 3.0 SSW 32 41 17 22 1021.1 1021.2 0.0
19/10:30am 11.3 4.5 7.6 78 1.8 SSW 33 44 18 24 1020.9 1021.0 0.0
19/10:00am 10.3 3.9 6.8 79 1.7 SSW 30 41 16 22 1020.6 1020.7 0.0
19/09:30am 9.8 4.8 7.9 88 0.9 SSW 24 33 13 18 1020.2 1020.3 0.0
19/09:00am 9.7 2.8 7.1 84 1.2 SSW 33 43 18 23 1019.3 1019.4 13.0
19/08:30am 9.4 3.9 7.5 88 0.9 SSW 26 33 14 18 1018.6 1018.7 13.0
19/08:00am 8.2 3.3 7.0 92 0.6 SSW 22 30 12 16 1018.2 1018.3 13.0
19/07:39am 8.4 1.7 7.3 93 0.5 S 32 50 17 27 1017.9 1018.0 13.0
19/07:30am 8.5 1.2 7.4 93 0.5 SSW 35 48 19 26 1017.8 1017.9 13.0
19/07:18am 8.5 2.1 7.1 91 0.7 SSW 30 54 16 29 1017.6 1017.7 13.0
19/07:00am 8.4 2.1 7.2 92 0.6 SW 30 41 16 22 1017.3 1017.4 13.0
19/06:49am 8.5 1.6 7.4 93 0.5 SSW 33 48 18 26 1017.3 1017.4 12.8
19/06:39am 8.4 1.5 7.3 93 0.5 SSW 33 48 18 26 1017.0 1017.1 12.8
19/06:30am 8.5 2.5 7.1 91 0.7 SSW 28 48 15 26 1017.0 1017.1 12.6
19/06:15am 8.8 2.9 7.6 92 0.6 SSW 28 52 15 28 1016.7 1016.8 12.6
19/06:00am 8.9 3.0 7.7 92 0.6 SSW 28 39 15 21 1016.4 1016.5 12.6
19/05:49am 8.9 2.6 7.5 91 0.7 SSW 30 48 16 26 1016.1 1016.2 12.4
19/05:30am 9.0 1.7 7.1 88 0.9 SSW 35 44 19 24 1015.8 1015.9 12.4
19/05:00am 9.3 2.0 7.3 87 0.9 SSW 35 50 19 27 1015.4 1015.5 12.4
19/04:30am 9.5 2.0 7.8 89 0.8 SSW 37 48 20 26 1015.0 1015.1 12.2
19/04:00am 10.0 3.6 8.4 90 0.8 SSW 32 41 17 22 1014.3 1014.4 12.2
19/03:37am 10.1 3.7 8.4 89 0.8 SSW 32 50 17 27 1014.1 1014.2 12.2
19/03:30am 10.0 2.6 8.4 90 0.8 SSW 37 54 20 29 1013.9 1014.0 12.2
19/03:00am 10.1 2.8 8.9 92 0.6 S 37 59 20 32 1013.1 1013.2 12.2
19/02:55am 10.4 3.6 9.2 92 0.6 SSW 35 59 19 32 1013.0 1013.1 12.2
19/02:51am 10.4 3.7 9.5 94 0.5 SSW 35 44 19 24 1012.8 1012.9 12.2
19/02:42am 10.3 3.9 9.5 95 0.4 SSW 33 44 18 24 1012.7 1012.8 12.2
19/02:30am 10.4 4.3 9.9 97 0.3 S 32 48 17 26 1012.4 1012.5 12.0
19/02:07am 10.4 4.1 9.6 95 0.4 SSW 33 52 18 28 1012.2 1012.3 11.0
19/02:02am 10.6 5.0 10.0 96 0.3 SSW 30 52 16 28 1012.1 1012.2 10.8
19/02:01am 10.6 5.3 10.0 96 0.3 SSW 28 39 15 21 1012.1 1012.2 10.8
19/02:00am 10.6 5.0 10.0 96 0.3 SSW 30 48 16 26 1012.1 1012.2 10.8
19/01:49am 10.5 5.2 9.9 96 0.3 SSW 28 52 15 28 1012.0 1012.1 10.8
19/01:42am 10.4 4.6 9.6 95 0.4 SW 30 41 16 22 1012.1 1012.2 10.2
19/01:39am 10.4 5.0 9.5 94 0.5 SW 28 41 15 22 1011.9 1012.0 9.2
19/01:30am 10.4 6.2 9.6 95 0.4 SW 22 28 12 15 1011.8 1011.9 9.2
19/01:00am 10.2 5.5 9.4 95 0.4 SW 24 33 13 18 1011.6 1011.7 9.0
19/12:58am 10.1 5.4 9.3 95 0.4 SW 24 33 13 18 1011.6 1011.7 9.0
19/12:53am 10.1 5.8 9.3 95 0.4 SW 22 32 12 17 1011.6 1011.7 9.0
19/12:46am 10.1 5.0 9.2 94 0.4 SW 26 37 14 20 1011.6 1011.7 9.0
19/12:37am 10.3 6.0 9.5 95 0.4 WSW 22 33 12 18 1011.5 1011.6 8.8
19/12:30am 10.1 6.1 9.2 94 0.4 WSW 20 30 11 16 1011.4 1011.5 8.6
19/12:00am 9.9 5.8 8.5 91 0.7 WSW 20 26 11 14 1011.2 1011.3 8.4
 
Date/Time
CST
Temp
°C
App
Temp
°C
Dew
Point
°C
Rel
Hum
%
Delta-T
°C
Wind Press
QNH
hPa
Press
MSL
hPa
Rain since
9am
mm
Dir  Spd
km/h
Gust
km/h
Spd
kts
Gust
kts
18/11:30pm 9.9 4.2 8.3 90 0.8 SW 28 41 15 22 1011.3 1011.4 8.4
18/11:00pm 10.0 3.9 8.4 90 0.8 SW 30 37 16 20 1011.0 1011.1 8.4
18/10:30pm 9.9 5.1 9.0 94 0.4 SW 24 32 13 17 1010.8 1010.9 8.4
18/10:25pm 10.0 5.7 9.2 95 0.4 SW 22 32 12 17 1010.6 1010.8 8.4
18/10:21pm 10.1 5.5 9.5 96 0.3 SW 24 33 13 18 1010.6 1010.8 8.4
18/10:02pm 10.1 5.8 9.3 95 0.4 SW 22 32 12 17 1010.4 1010.6 7.4

Other Formats:

Comma delimited format used in spreadsheet applications
http://www.bom.gov.au/fwo/IDS60801/IDS60801.94821.axf

JavaScript Object Notation format (JSON) in row-major order
http://www.bom.gov.au/fwo/IDS60801/IDS60801.94821.json